createdAt,value
2019-03-20T00:00:42.213Z,7.30
2019-03-20T00:03:48.031Z,7.17
2019-03-20T00:06:53.959Z,7.93
2019-03-20T00:09:59.692Z,8.53
2019-03-20T00:13:06.750Z,9.33
2019-03-20T00:16:12.477Z,9.27
2019-03-20T00:19:18.250Z,11.27
2019-03-20T00:22:23.979Z,10.30
2019-03-20T00:25:29.826Z,9.80
2019-03-20T00:28:35.763Z,10.07
2019-03-20T00:31:41.596Z,9.63
2019-03-20T00:34:47.378Z,9.47
2019-03-20T00:37:53.252Z,9.67
2019-03-20T00:40:58.987Z,9.30
2019-03-20T00:44:04.814Z,9.30
2019-03-20T00:47:10.640Z,9.63
2019-03-20T00:50:16.707Z,9.77
2019-03-20T00:53:22.599Z,9.73
2019-03-20T00:56:28.342Z,9.67
2019-03-20T00:59:34.085Z,9.33
2019-03-20T01:02:39.928Z,9.27
2019-03-20T01:05:45.743Z,9.20
2019-03-20T01:08:51.512Z,10.43
2019-03-20T01:11:58.364Z,10.30
2019-03-20T01:15:04.254Z,10.00
2019-03-20T01:18:11.099Z,9.57
2019-03-20T01:21:18.101Z,10.30
2019-03-20T01:24:23.860Z,9.23
2019-03-20T01:27:29.662Z,9.10
2019-03-20T01:30:37.656Z,9.10
2019-03-20T01:33:43.502Z,8.97
2019-03-20T01:36:49.170Z,9.43
2019-03-20T01:39:54.928Z,9.27
2019-03-20T01:43:01.799Z,9.37
2019-03-20T01:46:07.779Z,9.10
2019-03-20T01:49:13.517Z,7.87
2019-03-20T01:52:19.291Z,8.90
2019-03-20T01:55:25.189Z,8.87
2019-03-20T01:58:30.992Z,9.00
2019-03-20T02:01:36.810Z,8.13
2019-03-20T02:04:42.658Z,7.83
2019-03-20T02:07:48.498Z,8.27
2019-03-20T02:10:54.237Z,7.80
2019-03-20T02:14:00.083Z,7.40
2019-03-20T02:17:05.804Z,7.97
2019-03-20T02:20:13.732Z,8.20
2019-03-20T02:23:19.458Z,8.83
2019-03-20T02:26:25.234Z,7.93
2019-03-20T02:29:31.116Z,8.97
2019-03-20T02:32:36.860Z,9.03
2019-03-20T02:35:51.179Z,8.40
2019-03-20T02:38:50.252Z,8.47
2019-03-20T02:41:56.026Z,8.80
2019-03-20T02:45:01.821Z,9.50
2019-03-20T02:48:07.733Z,10.10
2019-03-20T02:51:13.599Z,11.30
2019-03-20T02:54:19.344Z,11.57
2019-03-20T02:57:25.079Z,10.83
2019-03-20T03:00:30.874Z,11.50
2019-03-20T03:03:36.674Z,12.70
2019-03-20T03:06:42.489Z,13.20
2019-03-20T03:09:48.301Z,13.73
2019-03-20T03:12:54.138Z,14.73
2019-03-20T03:16:00.000Z,15.80
2019-03-20T03:19:05.833Z,15.10
2019-03-20T03:22:11.763Z,14.23
2019-03-20T03:25:17.612Z,12.70
2019-03-20T03:28:23.596Z,13.03
2019-03-20T03:31:29.365Z,12.70
2019-03-20T03:34:35.135Z,12.17
2019-03-20T03:37:41.069Z,11.53
2019-03-20T03:40:47.847Z,11.73
2019-03-20T03:43:53.592Z,11.90
2019-03-20T03:46:59.321Z,11.60
2019-03-20T03:50:05.524Z,11.20
2019-03-20T03:53:11.425Z,11.37
2019-03-20T03:56:17.235Z,11.97
2019-03-20T03:59:23.066Z,11.50
2019-03-20T04:02:28.858Z,11.70
2019-03-20T04:05:34.788Z,11.40
2019-03-20T04:08:40.719Z,12.00
2019-03-20T04:11:46.560Z,12.80
2019-03-20T04:14:52.443Z,12.60
2019-03-20T04:17:58.178Z,12.70
2019-03-20T04:21:04.020Z,13.17
2019-03-20T04:24:09.755Z,11.73
2019-03-20T04:27:15.771Z,12.60
2019-03-20T04:30:21.787Z,11.97
2019-03-20T04:33:27.656Z,12.17
2019-03-20T04:36:33.503Z,11.47
2019-03-20T04:39:39.246Z,11.23
2019-03-20T04:42:45.077Z,12.20
2019-03-20T04:45:50.816Z,12.03
2019-03-20T04:48:56.728Z,11.73
2019-03-20T04:52:02.451Z,12.73
2019-03-20T04:55:08.570Z,12.37
2019-03-20T04:58:14.293Z,11.83
2019-03-20T05:01:20.131Z,11.73
2019-03-20T05:04:25.837Z,11.97
2019-03-20T05:07:31.703Z,12.63
2019-03-20T05:10:37.497Z,12.87
2019-03-20T05:13:43.229Z,13.03
2019-03-20T05:16:49.094Z,13.40
2019-03-20T05:19:55.001Z,13.60
2019-03-20T05:23:00.800Z,13.30
2019-03-20T05:26:06.538Z,13.63
2019-03-20T05:29:12.307Z,13.10
2019-03-20T05:32:19.749Z,13.90
2019-03-20T05:35:25.853Z,14.83
2019-03-20T05:38:31.587Z,15.53
2019-03-20T05:41:37.381Z,16.03
2019-03-20T05:44:43.161Z,17.33
2019-03-20T05:47:49.242Z,17.10
2019-03-20T05:50:54.962Z,16.97
2019-03-20T05:54:00.708Z,16.10
2019-03-20T05:57:06.486Z,15.33
2019-03-20T06:00:13.930Z,13.67
2019-03-20T06:03:19.667Z,12.80
2019-03-20T06:06:25.399Z,14.03
2019-03-20T06:09:31.181Z,13.57
2019-03-20T06:12:36.902Z,13.03
2019-03-20T06:15:42.751Z,13.07
2019-03-20T06:18:48.469Z,13.10
2019-03-20T06:21:54.271Z,13.77
2019-03-20T06:25:00.170Z,13.27
2019-03-20T06:28:06.362Z,14.57
2019-03-20T06:31:12.165Z,13.27
2019-03-20T06:34:17.922Z,12.83
2019-03-20T06:37:32.271Z,11.57
2019-03-20T06:40:31.263Z,14.73
2019-03-20T06:43:37.030Z,11.13
2019-03-20T06:46:42.833Z,11.50
2019-03-20T06:49:48.631Z,11.83
2019-03-20T06:52:54.526Z,11.97
2019-03-20T06:56:00.265Z,12.00
2019-03-20T06:59:50.810Z,12.30
2019-03-20T07:02:56.487Z,12.53
2019-03-20T07:06:24.826Z,12.47
2019-03-20T07:09:41.380Z,11.03
2019-03-20T07:12:47.137Z,11.57
2019-03-20T07:15:52.879Z,11.53
2019-03-20T07:18:58.666Z,10.27
2019-03-20T07:22:04.508Z,10.03
2019-03-20T07:25:10.340Z,10.43
2019-03-20T07:28:16.235Z,10.53
2019-03-20T07:31:22.019Z,10.70
2019-03-20T07:34:27.780Z,9.70
2019-03-20T07:37:33.803Z,10.27
2019-03-20T07:40:39.553Z,10.17
2019-03-20T07:43:45.372Z,11.60
2019-03-20T07:46:51.151Z,11.47
2019-03-20T07:49:56.992Z,11.27
2019-03-20T07:53:02.783Z,11.80
2019-03-20T07:56:08.714Z,11.67
2019-03-20T07:59:14.442Z,12.20
2019-03-20T08:02:20.341Z,11.67
2019-03-20T08:05:29.430Z,12.47
2019-03-20T08:08:33.632Z,11.73
2019-03-20T08:11:40.470Z,12.03
2019-03-20T08:14:46.364Z,12.20
2019-03-20T08:17:52.186Z,11.67
2019-03-20T08:20:58.093Z,11.20
2019-03-20T08:24:03.834Z,10.57
2019-03-20T08:27:09.629Z,12.63
2019-03-20T08:30:16.159Z,12.63
2019-03-20T08:33:21.940Z,11.97
2019-03-20T08:36:27.811Z,12.70
2019-03-20T08:39:33.555Z,12.27
2019-03-20T08:42:39.420Z,12.40
2019-03-20T08:45:45.165Z,11.10
2019-03-20T08:48:50.925Z,12.07
2019-03-20T08:51:56.696Z,12.40
2019-03-20T08:55:02.526Z,11.93
2019-03-20T08:58:08.380Z,11.77
2019-03-20T09:01:14.112Z,11.40
2019-03-20T09:04:19.843Z,11.70
2019-03-20T09:07:25.600Z,11.33
2019-03-20T09:10:31.365Z,11.50
2019-03-20T09:13:37.108Z,11.07
2019-03-20T09:16:42.952Z,10.87
2019-03-20T09:19:48.734Z,10.90
2019-03-20T09:22:54.578Z,12.13
2019-03-20T09:26:00.321Z,9.53
2019-03-20T09:29:06.241Z,9.33
2019-03-20T09:32:12.079Z,10.50
2019-03-20T09:35:18.953Z,9.30
2019-03-20T09:38:24.760Z,9.33
2019-03-20T09:41:30.490Z,9.47
2019-03-20T09:44:36.327Z,8.93
2019-03-20T09:47:42.172Z,8.80
2019-03-20T09:50:48.057Z,8.57
2019-03-20T09:53:53.784Z,9.67
2019-03-20T09:56:59.516Z,9.27
2019-03-20T10:00:11.193Z,8.80
2019-03-20T10:03:16.965Z,9.13
2019-03-20T10:06:22.891Z,9.07
2019-03-20T10:09:28.614Z,8.63
2019-03-20T10:12:34.395Z,9.63
2019-03-20T10:15:40.160Z,9.63
2019-03-20T10:18:45.924Z,9.20
2019-03-20T10:21:51.669Z,9.20
2019-03-20T10:24:57.506Z,9.17
2019-03-20T10:28:03.383Z,8.73
2019-03-20T10:31:09.173Z,9.80
2019-03-20T10:34:15.044Z,9.23
2019-03-20T10:37:20.770Z,9.83
2019-03-20T10:40:26.803Z,9.90
2019-03-20T10:43:32.570Z,10.47
2019-03-20T10:46:38.362Z,10.13
2019-03-20T10:49:44.197Z,10.43
2019-03-20T10:52:50.149Z,10.33
2019-03-20T10:55:55.886Z,9.60
2019-03-20T10:59:01.823Z,9.53
2019-03-20T11:02:08.599Z,9.23
2019-03-20T11:05:15.046Z,9.30
2019-03-20T11:08:20.987Z,9.23
2019-03-20T11:11:27.519Z,10.27
2019-03-20T11:14:33.264Z,9.40
2019-03-20T11:17:40.127Z,8.37
2019-03-20T11:20:45.843Z,9.13
2019-03-20T11:23:51.597Z,8.83
2019-03-20T11:26:57.459Z,12.13
2019-03-20T11:30:03.399Z,9.97
2019-03-20T11:33:10.360Z,10.43
2019-03-20T11:36:16.306Z,9.27
2019-03-20T11:39:29.544Z,9.80
2019-03-20T11:42:29.634Z,9.27
2019-03-20T11:45:36.570Z,9.13
2019-03-20T11:48:42.289Z,8.07
2019-03-20T11:51:48.241Z,8.93
2019-03-20T11:54:54.051Z,8.67
2019-03-20T11:57:59.895Z,9.20
2019-03-20T12:01:06.023Z,8.90
2019-03-20T12:04:11.850Z,9.30
2019-03-20T12:07:17.614Z,8.53
2019-03-20T12:10:23.774Z,8.80
2019-03-20T12:13:29.636Z,9.13
2019-03-20T12:16:35.429Z,9.20
2019-03-20T12:19:45.057Z,9.60
2019-03-20T12:22:49.307Z,9.90
2019-03-20T12:25:55.038Z,9.27
2019-03-20T12:29:00.784Z,10.07
2019-03-20T12:32:06.574Z,11.27
2019-03-20T12:35:13.403Z,14.67
2019-03-20T12:38:23.063Z,10.63
2019-03-20T12:41:28.794Z,9.50
2019-03-20T12:44:34.640Z,9.90
2019-03-20T12:47:40.415Z,10.20
2019-03-20T12:50:47.443Z,9.53
2019-03-20T12:53:53.332Z,9.23
2019-03-20T12:56:59.332Z,10.10
2019-03-20T13:00:07.135Z,10.50
2019-03-20T13:06:19.152Z,11.07
2019-03-20T13:09:24.941Z,11.40
2019-03-20T13:12:30.711Z,10.70
2019-03-20T13:15:36.449Z,10.80
2019-03-20T13:18:42.225Z,10.27
2019-03-20T13:21:48.018Z,9.90
2019-03-20T13:24:53.884Z,9.20
2019-03-20T13:27:59.806Z,9.40
2019-03-20T13:31:12.762Z,11.50
2019-03-20T13:34:18.493Z,11.27
2019-03-20T13:37:25.331Z,11.90
2019-03-20T13:40:31.102Z,11.33
2019-03-20T13:43:36.841Z,9.70
2019-03-20T13:46:42.613Z,10.03
2019-03-20T13:49:48.411Z,11.57
2019-03-20T13:52:54.169Z,10.33
2019-03-20T13:56:01.078Z,10.37
2019-03-20T13:59:07.217Z,11.43
2019-03-20T14:02:12.925Z,11.57
2019-03-20T14:05:20.212Z,11.37
2019-03-20T14:08:25.967Z,11.50
2019-03-20T14:11:31.702Z,10.07
2019-03-20T14:14:37.477Z,10.03
2019-03-20T14:17:43.436Z,10.67
2019-03-20T14:20:49.222Z,10.57
2019-03-20T14:23:55.010Z,9.80
2019-03-20T14:27:00.935Z,9.17
2019-03-20T14:30:09.956Z,10.20
2019-03-20T14:33:15.665Z,9.97
2019-03-20T14:36:21.504Z,9.30
2019-03-20T14:39:27.299Z,9.77
2019-03-20T14:42:33.028Z,7.43
2019-03-20T14:45:38.862Z,7.93
2019-03-20T14:48:44.718Z,10.47
2019-03-20T14:51:50.604Z,9.67
2019-03-20T14:54:56.353Z,9.70
2019-03-20T14:58:02.166Z,9.33
2019-03-20T15:01:07.911Z,10.43
2019-03-20T15:04:13.748Z,10.50
2019-03-20T15:07:19.501Z,10.23
2019-03-20T15:10:25.499Z,10.73
2019-03-20T15:13:31.249Z,8.00
2019-03-20T15:16:37.005Z,9.90
2019-03-20T15:19:42.802Z,9.93
2019-03-20T15:22:48.548Z,10.30
2019-03-20T15:25:54.463Z,10.57
2019-03-20T15:29:00.361Z,9.87
2019-03-20T15:32:06.410Z,10.33
2019-03-20T15:35:12.375Z,10.83
2019-03-20T15:38:18.108Z,10.80
2019-03-20T15:41:23.917Z,10.23
2019-03-20T15:44:30.759Z,10.53
2019-03-20T15:47:36.648Z,11.10
2019-03-20T15:50:42.520Z,10.80
2019-03-20T15:53:48.332Z,9.87
2019-03-20T15:56:56.066Z,9.40
2019-03-20T16:00:02.078Z,9.97
2019-03-20T16:03:11.163Z,9.27
2019-03-20T16:06:17.091Z,10.33
2019-03-20T16:09:22.870Z,10.43
2019-03-20T16:12:28.693Z,9.27
2019-03-20T16:15:34.465Z,9.17
2019-03-20T16:18:40.371Z,9.93
2019-03-20T16:21:46.191Z,10.20
2019-03-20T16:24:51.960Z,10.37
2019-03-20T16:27:57.996Z,10.87
2019-03-20T16:31:03.832Z,12.57
2019-03-20T16:34:09.616Z,12.20
2019-03-20T16:37:15.583Z,10.33
2019-03-20T16:40:23.015Z,10.17
2019-03-20T16:43:28.791Z,10.67
2019-03-20T16:46:34.706Z,11.30
2019-03-20T16:49:40.422Z,9.47
2019-03-20T16:52:46.567Z,9.70
2019-03-20T16:55:52.365Z,10.17
2019-03-20T16:58:58.194Z,8.77
2019-03-20T17:02:04.090Z,9.33
2019-03-20T17:05:10.358Z,9.27
2019-03-20T17:08:16.268Z,8.70
2019-03-20T17:11:30.385Z,9.50
2019-03-20T17:14:29.443Z,9.13
2019-03-20T17:17:35.340Z,7.93
2019-03-20T17:20:41.277Z,8.77
2019-03-20T17:23:48.562Z,9.00
2019-03-20T17:26:55.888Z,9.60
2019-03-20T17:30:01.690Z,8.73
2019-03-20T17:33:07.906Z,9.30
2019-03-20T17:36:13.729Z,9.87
2019-03-20T17:39:19.535Z,8.97
2019-03-20T17:42:25.438Z,8.80
2019-03-20T17:45:32.380Z,10.00
2019-03-20T17:48:38.135Z,9.20
2019-03-20T17:51:43.959Z,9.83
2019-03-20T17:54:49.743Z,9.60
2019-03-20T17:57:55.606Z,12.83
2019-03-20T18:01:01.646Z,10.83
2019-03-20T18:04:07.382Z,9.37
2019-03-20T18:07:13.198Z,9.43
2019-03-20T18:10:18.916Z,9.13
2019-03-20T18:13:24.830Z,9.23
2019-03-20T18:16:30.566Z,8.90
2019-03-20T18:19:36.365Z,9.50
2019-03-20T18:22:42.361Z,9.83
2019-03-20T18:25:48.088Z,9.80
2019-03-20T18:28:53.903Z,9.30
2019-03-20T18:31:59.632Z,9.37
2019-03-20T18:35:05.837Z,8.77
2019-03-20T18:38:11.720Z,8.53
2019-03-20T18:41:17.541Z,8.87
2019-03-20T18:44:23.391Z,9.57
2019-03-20T18:47:29.182Z,7.63
2019-03-20T18:50:34.949Z,8.40
2019-03-20T18:53:40.692Z,8.23
2019-03-20T18:56:46.431Z,7.50
2019-03-20T18:59:52.281Z,7.47
2019-03-20T19:02:58.873Z,8.97
2019-03-20T19:06:08.137Z,6.30
2019-03-20T19:09:13.870Z,6.83
2019-03-20T19:12:19.777Z,6.93
2019-03-20T19:15:25.850Z,6.80
2019-03-20T19:18:31.584Z,6.80
2019-03-20T19:21:37.341Z,8.03
2019-03-20T19:24:43.121Z,7.87
2019-03-20T19:27:48.839Z,8.17
2019-03-20T19:30:54.726Z,8.77
2019-03-20T19:34:00.911Z,8.77
2019-03-20T19:37:06.748Z,6.97
2019-03-20T19:41:12.104Z,7.53
2019-03-20T19:44:50.994Z,7.60
2019-03-20T19:49:00.409Z,6.77
2019-03-20T19:52:48.552Z,6.97
2019-03-20T19:56:21.545Z,7.00
2019-03-20T19:59:27.448Z,6.07
2019-03-20T20:03:15.261Z,7.53
2019-03-20T20:06:22.397Z,6.10
2019-03-20T20:09:29.146Z,7.20
2019-03-20T20:12:35.222Z,5.20
2019-03-20T20:15:40.999Z,5.73
2019-03-20T20:18:47.782Z,5.70
2019-03-20T20:21:53.953Z,5.00
2019-03-20T20:24:59.794Z,4.77
2019-03-20T20:28:05.819Z,5.27
2019-03-20T20:31:11.705Z,5.47
2019-03-20T20:34:17.436Z,5.27
2019-03-20T20:37:23.388Z,5.03
2019-03-20T20:40:29.209Z,5.27
2019-03-20T20:43:34.963Z,5.53
2019-03-20T20:46:40.773Z,5.23
2019-03-20T20:49:46.515Z,5.67
2019-03-20T20:52:52.294Z,6.10
2019-03-20T20:55:58.072Z,5.00
2019-03-20T20:59:03.918Z,5.40
2019-03-20T21:02:09.715Z,5.70
2019-03-20T21:05:15.769Z,5.03
2019-03-20T21:08:21.602Z,5.47
2019-03-20T21:11:27.473Z,5.30
2019-03-20T21:14:33.213Z,5.10
2019-03-20T21:18:02.181Z,6.30
2019-03-20T21:21:08.464Z,6.07
2019-03-20T21:24:30.254Z,5.90
2019-03-20T21:28:29.969Z,7.63
2019-03-20T21:32:06.337Z,6.63
2019-03-20T21:35:54.350Z,6.57
2019-03-20T21:39:00.678Z,6.33
2019-03-20T21:43:06.788Z,6.13
2019-03-20T21:46:38.033Z,6.83
2019-03-20T21:49:44.343Z,5.93
2019-03-20T21:52:50.606Z,6.37
2019-03-20T21:56:23.992Z,6.67
2019-03-20T22:00:12.438Z,6.40
2019-03-20T22:03:18.741Z,7.07
2019-03-20T22:07:03.902Z,6.70
2019-03-20T22:10:55.500Z,6.70
2019-03-20T22:14:05.563Z,7.17
2019-03-20T22:17:53.671Z,8.07
2019-03-20T22:21:23.408Z,7.77
2019-03-20T22:25:06.816Z,8.00
2019-03-20T22:28:53.365Z,8.97
2019-03-20T22:32:19.226Z,9.33
2019-03-20T22:35:34.465Z,9.13
2019-03-20T22:39:24.893Z,9.13
2019-03-20T22:42:51.210Z,10.00
2019-03-20T22:46:39.546Z,8.73
2019-03-20T22:50:18.432Z,9.57
2019-03-20T22:54:06.562Z,9.50
2019-03-20T22:57:50.137Z,9.33
2019-03-20T23:00:57.093Z,8.80
2019-03-20T23:04:10.113Z,8.97
2019-03-20T23:07:16.595Z,8.60
2019-03-20T23:10:22.848Z,9.70
2019-03-20T23:13:29.114Z,8.40
2019-03-20T23:16:35.368Z,8.87
2019-03-20T23:19:42.533Z,9.03
2019-03-20T23:22:48.867Z,8.70
2019-03-20T23:25:55.202Z,9.40
2019-03-20T23:29:01.571Z,8.40
2019-03-20T23:32:07.869Z,8.00
2019-03-20T23:35:14.430Z,8.20
2019-03-20T23:38:20.741Z,8.50
2019-03-20T23:41:27.206Z,7.40
2019-03-20T23:44:33.522Z,8.00
2019-03-20T23:48:04.345Z,8.10
2019-03-20T23:51:13.547Z,8.10
2019-03-20T23:54:23.065Z,7.97
2019-03-20T23:57:29.344Z,7.83
